sensor_id;sensor_type;location;lat;lon;timestamp;pressure;altitude;pressure_sealevel;temperature;humidity
77149;BME280;66122;47.130;16.844;2023-08-06T00:02:20;98471.16;;;16.15;100.00
77149;BME280;66122;47.130;16.844;2023-08-06T00:12:22;98444.75;;;16.12;100.00
77149;BME280;66122;47.130;16.844;2023-08-06T00:22:26;98484.69;;;16.13;100.00
77149;BME280;66122;47.130;16.844;2023-08-06T00:32:28;98497.63;;;16.08;100.00
77149;BME280;66122;47.130;16.844;2023-08-06T00:42:31;98492.88;;;16.02;100.00
77149;BME280;66122;47.130;16.844;2023-08-06T00:52:34;98468.72;;;15.94;100.00
77149;BME280;66122;47.130;16.844;2023-08-06T01:02:38;98472.09;;;15.96;100.00
77149;BME280;66122;47.130;16.844;2023-08-06T01:12:54;98468.94;;;15.83;100.00
77149;BME280;66122;47.130;16.844;2023-08-06T01:22:58;98469.09;;;15.81;100.00
77149;BME280;66122;47.130;16.844;2023-08-06T01:33:05;98495.88;;;15.99;100.00
77149;BME280;66122;47.130;16.844;2023-08-06T01:43:09;98460.84;;;15.92;100.00
77149;BME280;66122;47.130;16.844;2023-08-06T01:53:12;98461.81;;;16.01;100.00
77149;BME280;66122;47.130;16.844;2023-08-06T02:03:15;98458.50;;;15.89;100.00
77149;BME280;66122;47.130;16.844;2023-08-06T02:13:18;98457.66;;;15.89;100.00
77149;BME280;66122;47.130;16.844;2023-08-06T02:23:21;98441.00;;;15.77;100.00
77149;BME280;66122;47.130;16.844;2023-08-06T02:33:24;98424.69;;;15.71;100.00
77149;BME280;66122;47.130;16.844;2023-08-06T02:43:26;98433.41;;;15.73;100.00
77149;BME280;66122;47.130;16.844;2023-08-06T02:53:29;98428.06;;;15.73;100.00
77149;BME280;66122;47.130;16.844;2023-08-06T03:03:35;98422.81;;;15.81;100.00
77149;BME280;66122;47.130;16.844;2023-08-06T03:13:40;98410.66;;;15.69;100.00
77149;BME280;66122;47.130;16.844;2023-08-06T03:23:47;98419.34;;;15.71;100.00
77149;BME280;66122;47.130;16.844;2023-08-06T03:33:50;98395.22;;;15.63;100.00
77149;BME280;66122;47.130;16.844;2023-08-06T03:43:58;98426.19;;;15.83;100.00
77149;BME280;66122;47.130;16.844;2023-08-06T03:54:03;98443.06;;;15.83;100.00
77149;BME280;66122;47.130;16.844;2023-08-06T04:04:06;98424.00;;;15.69;100.00
77149;BME280;66122;47.130;16.844;2023-08-06T04:14:09;98455.88;;;15.80;100.00
77149;BME280;66122;47.130;16.844;2023-08-06T04:24:12;98469.13;;;15.72;100.00
77149;BME280;66122;47.130;16.844;2023-08-06T04:34:15;98435.97;;;15.65;100.00
77149;BME280;66122;47.130;16.844;2023-08-06T04:44:17;98432.91;;;15.59;100.00
77149;BME280;66122;47.130;16.844;2023-08-06T04:54:20;98424.69;;;15.71;100.00
77149;BME280;66122;47.130;16.844;2023-08-06T05:04:23;98423.03;;;15.97;100.00
77149;BME280;66122;47.130;16.844;2023-08-06T05:14:25;98415.59;;;15.91;100.00
77149;BME280;66122;47.130;16.844;2023-08-06T05:24:28;98411.25;;;16.08;100.00
77149;BME280;66122;47.130;16.844;2023-08-06T05:34:30;98418.78;;;16.57;100.00
77149;BME280;66122;47.130;16.844;2023-08-06T05:44:34;98430.44;;;16.66;100.00
77149;BME280;66122;47.130;16.844;2023-08-06T05:54:37;98433.69;;;16.60;100.00
77149;BME280;66122;47.130;16.844;2023-08-06T06:04:40;98413.31;;;16.41;100.00
77149;BME280;66122;47.130;16.844;2023-08-06T06:14:43;98419.06;;;16.64;100.00
77149;BME280;66122;47.130;16.844;2023-08-06T06:24:47;98411.09;;;16.72;100.00
77149;BME280;66122;47.130;16.844;2023-08-06T06:34:50;98428.59;;;16.84;100.00
77149;BME280;66122;47.130;16.844;2023-08-06T06:44:53;98402.00;;;16.83;100.00
77149;BME280;66122;47.130;16.844;2023-08-06T06:54:56;98443.25;;;16.98;100.00
77149;BME280;66122;47.130;16.844;2023-08-06T07:05:03;98443.97;;;16.82;100.00
77149;BME280;66122;47.130;16.844;2023-08-06T07:15:06;98440.59;;;16.80;100.00
77149;BME280;66122;47.130;16.844;2023-08-06T07:25:09;98445.16;;;17.05;100.00
77149;BME280;66122;47.130;16.844;2023-08-06T07:35:11;98466.50;;;17.41;100.00
77149;BME280;66122;47.130;16.844;2023-08-06T07:45:15;98442.75;;;17.46;100.00
77149;BME280;66122;47.130;16.844;2023-08-06T07:55:21;98455.94;;;17.65;100.00
77149;BME280;66122;47.130;16.844;2023-08-06T08:05:24;98476.41;;;18.08;100.00
77149;BME280;66122;47.130;16.844;2023-08-06T08:15:31;98482.09;;;18.05;100.00
77149;BME280;66122;47.130;16.844;2023-08-06T08:25:34;98475.13;;;17.78;100.00
77149;BME280;66122;47.130;16.844;2023-08-06T08:35:37;98436.09;;;17.58;100.00
77149;BME280;66122;47.130;16.844;2023-08-06T08:45:42;98440.50;;;17.93;100.00
77149;BME280;66122;47.130;16.844;2023-08-06T08:55:48;98482.97;;;17.80;100.00
77149;BME280;66122;47.130;16.844;2023-08-06T09:05:53;98473.03;;;17.64;100.00
77149;BME280;66122;47.130;16.844;2023-08-06T09:15:56;98461.22;;;17.83;100.00
77149;BME280;66122;47.130;16.844;2023-08-06T09:26:00;98475.94;;;18.13;100.00
77149;BME280;66122;47.130;16.844;2023-08-06T09:36:08;98469.97;;;18.27;100.00
77149;BME280;66122;47.130;16.844;2023-08-06T09:46:13;98495.25;;;18.75;100.00
77149;BME280;66122;47.130;16.844;2023-08-06T09:56:17;98460.50;;;19.54;97.68
77149;BME280;66122;47.130;16.844;2023-08-06T10:06:22;98477.00;;;19.98;92.84
77149;BME280;66122;47.130;16.844;2023-08-06T10:16:28;98480.81;;;19.40;88.84
77149;BME280;66122;47.130;16.844;2023-08-06T10:26:31;98497.09;;;19.31;88.98
77149;BME280;66122;47.130;16.844;2023-08-06T10:36:37;98499.97;;;18.97;90.94
77149;BME280;66122;47.130;16.844;2023-08-06T10:46:40;98515.25;;;18.80;93.15
77149;BME280;66122;47.130;16.844;2023-08-06T10:56:45;98520.25;;;18.83;96.03
77149;BME280;66122;47.130;16.844;2023-08-06T11:06:53;98534.97;;;18.21;100.00
77149;BME280;66122;47.130;16.844;2023-08-06T11:16:56;98526.63;;;17.64;100.00
77149;BME280;66122;47.130;16.844;2023-08-06T11:26:58;98546.13;;;17.56;100.00
77149;BME280;66122;47.130;16.844;2023-08-06T11:37:05;98551.38;;;17.40;100.00
77149;BME280;66122;47.130;16.844;2023-08-06T11:47:12;98575.78;;;17.20;100.00
77149;BME280;66122;47.130;16.844;2023-08-06T11:57:15;98603.41;;;17.20;100.00
77149;BME280;66122;47.130;16.844;2023-08-06T12:07:19;98612.19;;;17.48;100.00
77149;BME280;66122;47.130;16.844;2023-08-06T12:17:25;98616.13;;;17.36;100.00
77149;BME280;66122;47.130;16.844;2023-08-06T12:27:28;98624.06;;;17.28;100.00
77149;BME280;66122;47.130;16.844;2023-08-06T12:37:35;98635.22;;;17.23;100.00
77149;BME280;66122;47.130;16.844;2023-08-06T12:47:38;98634.47;;;17.84;100.00
77149;BME280;66122;47.130;16.844;2023-08-06T12:57:41;98617.22;;;18.12;100.00
77149;BME280;66122;47.130;16.844;2023-08-06T13:08:00;98637.50;;;18.41;100.00
77149;BME280;66122;47.130;16.844;2023-08-06T13:18:02;98649.38;;;18.38;94.78
77149;BME280;66122;47.130;16.844;2023-08-06T13:28:05;98648.81;;;18.26;91.87
77149;BME280;66122;47.130;16.844;2023-08-06T13:38:14;98647.19;;;18.33;93.71
77149;BME280;66122;47.130;16.844;2023-08-06T13:48:18;98643.84;;;18.57;94.52
77149;BME280;66122;47.130;16.844;2023-08-06T13:58:21;98625.81;;;18.50;95.25
77149;BME280;66122;47.130;16.844;2023-08-06T14:08:25;98628.06;;;19.13;88.24
77149;BME280;66122;47.130;16.844;2023-08-06T14:18:29;98628.00;;;20.97;81.93
77149;BME280;66122;47.130;16.844;2023-08-06T14:28:32;98637.81;;;21.52;72.95
77149;BME280;66122;47.130;16.844;2023-08-06T14:38:35;98639.00;;;22.77;64.63
77149;BME280;66122;47.130;16.844;2023-08-06T14:48:57;98646.72;;;22.50;66.72
77149;BME280;66122;47.130;16.844;2023-08-06T14:59:10;98639.88;;;21.11;73.33
77149;BME280;66122;47.130;16.844;2023-08-06T15:09:15;98630.56;;;23.16;62.47
77149;BME280;66122;47.130;16.844;2023-08-06T15:19:18;98627.84;;;23.52;63.51
77149;BME280;66122;47.130;16.844;2023-08-06T15:29:24;98666.25;;;24.04;57.10
77149;BME280;66122;47.130;16.844;2023-08-06T15:39:34;98660.78;;;24.88;53.26
77149;BME280;66122;47.130;16.844;2023-08-06T15:49:43;98674.88;;;22.85;57.25
77149;BME280;66122;47.130;16.844;2023-08-06T15:59:47;98662.75;;;21.31;67.05
77149;BME280;66122;47.130;16.844;2023-08-06T16:09:50;98691.03;;;19.93;78.92
77149;BME280;66122;47.130;16.844;2023-08-06T16:19:55;98687.47;;;19.52;84.60
77149;BME280;66122;47.130;16.844;2023-08-06T16:29:57;98703.91;;;18.64;97.05
77149;BME280;66122;47.130;16.844;2023-08-06T16:40:04;98692.16;;;17.70;100.00
77149;BME280;66122;47.130;16.844;2023-08-06T16:50:07;98709.66;;;16.65;100.00
77149;BME280;66122;47.130;16.844;2023-08-06T17:00:13;98708.88;;;15.20;100.00
77149;BME280;66122;47.130;16.844;2023-08-06T17:10:15;98721.84;;;15.24;100.00
77149;BME280;66122;47.130;16.844;2023-08-06T17:20:23;98734.97;;;15.56;100.00
77149;BME280;66122;47.130;16.844;2023-08-06T17:30:26;98767.19;;;15.84;100.00
77149;BME280;66122;47.130;16.844;2023-08-06T17:40:29;98775.91;;;15.76;100.00
77149;BME280;66122;47.130;16.844;2023-08-06T17:50:32;98750.53;;;15.51;100.00
77149;BME280;66122;47.130;16.844;2023-08-06T18:00:35;98785.47;;;15.69;100.00
77149;BME280;66122;47.130;16.844;2023-08-06T18:10:38;98793.63;;;15.87;100.00
77149;BME280;66122;47.130;16.844;2023-08-06T18:20:41;98815.28;;;16.03;100.00
77149;BME280;66122;47.130;16.844;2023-08-06T18:30:44;98812.34;;;15.77;100.00
77149;BME280;66122;47.130;16.844;2023-08-06T18:40:47;98828.50;;;15.76;100.00
77149;BME280;66122;47.130;16.844;2023-08-06T18:50:50;98831.59;;;15.81;100.00
77149;BME280;66122;47.130;16.844;2023-08-06T19:00:57;98858.53;;;15.58;100.00
77149;BME280;66122;47.130;16.844;2023-08-06T19:11:00;98839.63;;;15.50;100.00
77149;BME280;66122;47.130;16.844;2023-08-06T19:21:02;98838.66;;;15.51;100.00
77149;BME280;66122;47.130;16.844;2023-08-06T19:31:05;98859.81;;;15.54;100.00
77149;BME280;66122;47.130;16.844;2023-08-06T19:41:08;98867.13;;;15.72;100.00
77149;BME280;66122;47.130;16.844;2023-08-06T19:51:14;98863.50;;;15.73;100.00
77149;BME280;66122;47.130;16.844;2023-08-06T20:01:17;98879.59;;;15.92;100.00
77149;BME280;66122;47.130;16.844;2023-08-06T20:11:20;98866.75;;;15.76;100.00
77149;BME280;66122;47.130;16.844;2023-08-06T20:21:23;98890.91;;;15.75;100.00
77149;BME280;66122;47.130;16.844;2023-08-06T20:31:26;98898.47;;;15.60;100.00
77149;BME280;66122;47.130;16.844;2023-08-06T20:41:29;98875.84;;;15.34;100.00
77149;BME280;66122;47.130;16.844;2023-08-06T20:51:31;98881.88;;;15.26;100.00
77149;BME280;66122;47.130;16.844;2023-08-06T21:01:35;98888.19;;;15.25;100.00
77149;BME280;66122;47.130;16.844;2023-08-06T21:11:37;98887.03;;;15.28;100.00
77149;BME280;66122;47.130;16.844;2023-08-06T21:21:41;98893.34;;;15.17;100.00
77149;BME280;66122;47.130;16.844;2023-08-06T21:31:44;98910.31;;;15.16;100.00
77149;BME280;66122;47.130;16.844;2023-08-06T21:41:48;98930.75;;;15.06;100.00
77149;BME280;66122;47.130;16.844;2023-08-06T21:51:50;98922.00;;;14.73;100.00
77149;BME280;66122;47.130;16.844;2023-08-06T22:01:53;98920.28;;;14.52;100.00
77149;BME280;66122;47.130;16.844;2023-08-06T22:11:56;98945.28;;;14.28;100.00
77149;BME280;66122;47.130;16.844;2023-08-06T22:21:59;98923.00;;;13.86;100.00
77149;BME280;66122;47.130;16.844;2023-08-06T22:32:01;98928.22;;;13.54;100.00
77149;BME280;66122;47.130;16.844;2023-08-06T22:42:04;98954.72;;;13.22;100.00
77149;BME280;66122;47.130;16.844;2023-08-06T22:52:07;98972.03;;;13.17;100.00
77149;BME280;66122;47.130;16.844;2023-08-06T23:02:09;98973.19;;;12.78;100.00
77149;BME280;66122;47.130;16.844;2023-08-06T23:12:14;98968.84;;;12.77;100.00
77149;BME280;66122;47.130;16.844;2023-08-06T23:22:19;98982.41;;;12.50;100.00
77149;BME280;66122;47.130;16.844;2023-08-06T23:32:22;98981.25;;;12.65;100.00
77149;BME280;66122;47.130;16.844;2023-08-06T23:42:24;99000.59;;;13.02;100.00
77149;BME280;66122;47.130;16.844;2023-08-06T23:52:29;99004.16;;;13.14;100.00
